sensor_id;sensor_type;location;lat;lon;timestamp;temperature;humidity
46590;DHT22;32313;48.722;9.362;2023-06-22T00:01:17;19.00;99.90
46590;DHT22;32313;48.722;9.362;2023-06-22T00:03:43;19.00;99.90
46590;DHT22;32313;48.722;9.362;2023-06-22T00:06:09;19.00;99.90
46590;DHT22;32313;48.722;9.362;2023-06-22T00:08:34;19.00;99.90
46590;DHT22;32313;48.722;9.362;2023-06-22T00:11:00;18.90;99.90
46590;DHT22;32313;48.722;9.362;2023-06-22T00:13:26;18.90;99.90
46590;DHT22;32313;48.722;9.362;2023-06-22T00:15:52;18.90;99.90
46590;DHT22;32313;48.722;9.362;2023-06-22T00:18:17;18.80;99.90
46590;DHT22;32313;48.722;9.362;2023-06-22T00:20:43;18.80;99.90
46590;DHT22;32313;48.722;9.362;2023-06-22T00:23:11;18.80;99.90
46590;DHT22;32313;48.722;9.362;2023-06-22T00:25:40;18.80;99.90
46590;DHT22;32313;48.722;9.362;2023-06-22T00:28:06;18.80;99.90
46590;DHT22;32313;48.722;9.362;2023-06-22T00:30:34;18.80;99.90
46590;DHT22;32313;48.722;9.362;2023-06-22T00:33:00;18.80;99.90
46590;DHT22;32313;48.722;9.362;2023-06-22T00:35:27;18.70;99.90
46590;DHT22;32313;48.722;9.362;2023-06-22T00:37:55;18.70;99.90
46590;DHT22;32313;48.722;9.362;2023-06-22T00:40:31;18.60;99.90
46590;DHT22;32313;48.722;9.362;2023-06-22T00:42:58;18.60;99.90
46590;DHT22;32313;48.722;9.362;2023-06-22T00:45:24;18.50;99.90
46590;DHT22;32313;48.722;9.362;2023-06-22T00:47:56;18.50;99.90
46590;DHT22;32313;48.722;9.362;2023-06-22T00:50:24;18.50;99.90
46590;DHT22;32313;48.722;9.362;2023-06-22T00:52:57;18.50;99.90
46590;DHT22;32313;48.722;9.362;2023-06-22T00:55:25;18.50;99.90
46590;DHT22;32313;48.722;9.362;2023-06-22T00:57:52;18.50;99.90
46590;DHT22;32313;48.722;9.362;2023-06-22T01:00:22;18.40;99.90
46590;DHT22;32313;48.722;9.362;2023-06-22T01:02:53;18.30;99.90
46590;DHT22;32313;48.722;9.362;2023-06-22T01:05:20;18.30;99.90
46590;DHT22;32313;48.722;9.362;2023-06-22T01:10:35;18.30;99.90
46590;DHT22;32313;48.722;9.362;2023-06-22T01:13:11;18.30;99.90
46590;DHT22;32313;48.722;9.362;2023-06-22T01:15:44;18.30;99.90
46590;DHT22;32313;48.722;9.362;2023-06-22T01:18:13;18.30;99.90
46590;DHT22;32313;48.722;9.362;2023-06-22T01:20:39;18.30;99.90
46590;DHT22;32313;48.722;9.362;2023-06-22T01:23:26;18.30;99.90
46590;DHT22;32313;48.722;9.362;2023-06-22T01:26:02;18.40;99.90
46590;DHT22;32313;48.722;9.362;2023-06-22T01:28:46;18.40;99.90
46590;DHT22;32313;48.722;9.362;2023-06-22T01:31:18;18.40;99.90
46590;DHT22;32313;48.722;9.362;2023-06-22T01:33:50;18.40;99.90
46590;DHT22;32313;48.722;9.362;2023-06-22T01:36:18;18.30;99.90
46590;DHT22;32313;48.722;9.362;2023-06-22T01:38:47;18.40;99.90
46590;DHT22;32313;48.722;9.362;2023-06-22T01:41:13;18.40;99.90
46590;DHT22;32313;48.722;9.362;2023-06-22T01:43:39;18.40;99.90
46590;DHT22;32313;48.722;9.362;2023-06-22T01:46:06;18.40;99.90
46590;DHT22;32313;48.722;9.362;2023-06-22T01:48:32;18.30;99.90
46590;DHT22;32313;48.722;9.362;2023-06-22T01:51:02;18.20;99.90
46590;DHT22;32313;48.722;9.362;2023-06-22T01:53:28;18.20;99.90
46590;DHT22;32313;48.722;9.362;2023-06-22T01:55:53;18.20;99.90
46590;DHT22;32313;48.722;9.362;2023-06-22T01:58:22;18.10;99.90
46590;DHT22;32313;48.722;9.362;2023-06-22T02:00:55;18.10;99.90
46590;DHT22;32313;48.722;9.362;2023-06-22T02:03:27;18.00;99.90
46590;DHT22;32313;48.722;9.362;2023-06-22T02:06:01;18.00;99.90
46590;DHT22;32313;48.722;9.362;2023-06-22T02:08:41;17.90;99.90
46590;DHT22;32313;48.722;9.362;2023-06-22T02:11:12;17.90;99.90
46590;DHT22;32313;48.722;9.362;2023-06-22T02:13:38;17.80;99.90
46590;DHT22;32313;48.722;9.362;2023-06-22T02:16:13;17.80;99.90
46590;DHT22;32313;48.722;9.362;2023-06-22T02:18:46;17.80;99.90
46590;DHT22;32313;48.722;9.362;2023-06-22T02:21:12;17.80;99.90
46590;DHT22;32313;48.722;9.362;2023-06-22T02:23:38;17.80;99.90
46590;DHT22;32313;48.722;9.362;2023-06-22T02:26:03;17.80;99.90
46590;DHT22;32313;48.722;9.362;2023-06-22T02:28:30;17.80;99.90
46590;DHT22;32313;48.722;9.362;2023-06-22T02:30:56;17.80;99.90
46590;DHT22;32313;48.722;9.362;2023-06-22T02:33:22;17.80;99.90
46590;DHT22;32313;48.722;9.362;2023-06-22T02:35:48;17.70;99.90
46590;DHT22;32313;48.722;9.362;2023-06-22T02:38:14;17.70;99.90
46590;DHT22;32313;48.722;9.362;2023-06-22T02:40:40;17.70;99.90
46590;DHT22;32313;48.722;9.362;2023-06-22T02:43:06;17.70;99.90
46590;DHT22;32313;48.722;9.362;2023-06-22T02:45:32;17.70;99.90
46590;DHT22;32313;48.722;9.362;2023-06-22T02:47:58;17.70;99.90
46590;DHT22;32313;48.722;9.362;2023-06-22T02:50:24;17.60;99.90
46590;DHT22;32313;48.722;9.362;2023-06-22T02:52:51;17.60;99.90
46590;DHT22;32313;48.722;9.362;2023-06-22T02:55:17;17.50;99.90
46590;DHT22;32313;48.722;9.362;2023-06-22T02:57:51;17.50;99.90
46590;DHT22;32313;48.722;9.362;2023-06-22T03:00:19;17.40;99.90
46590;DHT22;32313;48.722;9.362;2023-06-22T03:02:47;17.50;99.90
46590;DHT22;32313;48.722;9.362;2023-06-22T03:05:15;17.40;99.90
46590;DHT22;32313;48.722;9.362;2023-06-22T03:07:44;17.40;99.90
46590;DHT22;32313;48.722;9.362;2023-06-22T03:10:12;17.40;99.90
46590;DHT22;32313;48.722;9.362;2023-06-22T03:12:39;17.30;99.90
46590;DHT22;32313;48.722;9.362;2023-06-22T03:15:06;17.30;99.90
46590;DHT22;32313;48.722;9.362;2023-06-22T03:17:33;17.40;99.90
46590;DHT22;32313;48.722;9.362;2023-06-22T03:19:59;17.30;99.90
46590;DHT22;32313;48.722;9.362;2023-06-22T03:22:25;17.30;99.90
46590;DHT22;32313;48.722;9.362;2023-06-22T03:24:51;17.30;99.90
46590;DHT22;32313;48.722;9.362;2023-06-22T03:27:17;17.30;99.90
46590;DHT22;32313;48.722;9.362;2023-06-22T03:29:44;17.30;99.90
46590;DHT22;32313;48.722;9.362;2023-06-22T03:32:11;17.30;99.90
46590;DHT22;32313;48.722;9.362;2023-06-22T03:34:36;17.20;99.90
46590;DHT22;32313;48.722;9.362;2023-06-22T03:37:02;17.20;99.90
46590;DHT22;32313;48.722;9.362;2023-06-22T03:39:28;17.10;99.90
46590;DHT22;32313;48.722;9.362;2023-06-22T03:41:54;17.00;99.90
46590;DHT22;32313;48.722;9.362;2023-06-22T03:44:20;17.00;99.90
46590;DHT22;32313;48.722;9.362;2023-06-22T03:46:46;17.00;99.90
46590;DHT22;32313;48.722;9.362;2023-06-22T03:49:12;17.00;99.90
46590;DHT22;32313;48.722;9.362;2023-06-22T03:51:38;17.00;99.90
46590;DHT22;32313;48.722;9.362;2023-06-22T03:54:04;17.00;99.90
46590;DHT22;32313;48.722;9.362;2023-06-22T03:56:30;17.00;99.90
46590;DHT22;32313;48.722;9.362;2023-06-22T03:58:57;17.00;99.90
46590;DHT22;32313;48.722;9.362;2023-06-22T04:01:22;17.10;99.90
46590;DHT22;32313;48.722;9.362;2023-06-22T04:03:48;17.20;99.90
46590;DHT22;32313;48.722;9.362;2023-06-22T04:06:15;17.10;99.90
46590;DHT22;32313;48.722;9.362;2023-06-22T04:08:41;17.20;99.90
46590;DHT22;32313;48.722;9.362;2023-06-22T04:11:07;17.20;99.90
46590;DHT22;32313;48.722;9.362;2023-06-22T04:13:33;17.30;99.90
46590;DHT22;32313;48.722;9.362;2023-06-22T04:15:58;17.30;99.90
46590;DHT22;32313;48.722;9.362;2023-06-22T04:18:26;17.30;99.90
46590;DHT22;32313;48.722;9.362;2023-06-22T04:20:52;17.40;99.90
46590;DHT22;32313;48.722;9.362;2023-06-22T04:23:18;17.50;99.90
46590;DHT22;32313;48.722;9.362;2023-06-22T04:25:44;17.50;99.90
46590;DHT22;32313;48.722;9.362;2023-06-22T04:28:09;17.60;99.90
46590;DHT22;32313;48.722;9.362;2023-06-22T04:30:38;17.60;99.90
46590;DHT22;32313;48.722;9.362;2023-06-22T04:33:15;17.70;99.90
46590;DHT22;32313;48.722;9.362;2023-06-22T04:35:41;17.70;99.90
46590;DHT22;32313;48.722;9.362;2023-06-22T04:38:08;17.80;99.90
46590;DHT22;32313;48.722;9.362;2023-06-22T04:40:33;17.90;99.90
46590;DHT22;32313;48.722;9.362;2023-06-22T04:42:59;18.00;99.90
46590;DHT22;32313;48.722;9.362;2023-06-22T04:45:28;18.00;99.90
46590;DHT22;32313;48.722;9.362;2023-06-22T04:47:55;18.20;99.90
46590;DHT22;32313;48.722;9.362;2023-06-22T04:50:20;18.30;99.90
46590;DHT22;32313;48.722;9.362;2023-06-22T04:52:47;18.40;99.90
46590;DHT22;32313;48.722;9.362;2023-06-22T04:55:14;18.50;99.90
46590;DHT22;32313;48.722;9.362;2023-06-22T04:57:44;18.60;99.90
46590;DHT22;32313;48.722;9.362;2023-06-22T05:00:19;18.70;99.90
46590;DHT22;32313;48.722;9.362;2023-06-22T05:02:46;18.80;99.90
46590;DHT22;32313;48.722;9.362;2023-06-22T05:05:13;19.00;99.90
46590;DHT22;32313;48.722;9.362;2023-06-22T05:07:43;19.10;99.90
46590;DHT22;32313;48.722;9.362;2023-06-22T05:10:10;19.20;99.90
46590;DHT22;32313;48.722;9.362;2023-06-22T05:12:38;19.30;99.90
46590;DHT22;32313;48.722;9.362;2023-06-22T05:15:05;19.40;99.90
46590;DHT22;32313;48.722;9.362;2023-06-22T05:17:31;19.50;99.90
46590;DHT22;32313;48.722;9.362;2023-06-22T05:19:57;19.70;99.90
46590;DHT22;32313;48.722;9.362;2023-06-22T05:22:23;19.90;99.90
46590;DHT22;32313;48.722;9.362;2023-06-22T05:24:49;20.00;99.90
46590;DHT22;32313;48.722;9.362;2023-06-22T05:27:15;20.20;99.90
46590;DHT22;32313;48.722;9.362;2023-06-22T05:29:41;20.30;99.90
46590;DHT22;32313;48.722;9.362;2023-06-22T05:32:08;20.40;99.90
46590;DHT22;32313;48.722;9.362;2023-06-22T05:34:34;20.40;99.90
46590;DHT22;32313;48.722;9.362;2023-06-22T05:37:00;20.50;99.90
46590;DHT22;32313;48.722;9.362;2023-06-22T05:39:26;20.70;99.90
46590;DHT22;32313;48.722;9.362;2023-06-22T05:41:52;20.80;99.90
46590;DHT22;32313;48.722;9.362;2023-06-22T05:44:18;20.90;99.90
46590;DHT22;32313;48.722;9.362;2023-06-22T05:46:45;21.10;99.90
46590;DHT22;32313;48.722;9.362;2023-06-22T05:49:12;21.30;99.90
46590;DHT22;32313;48.722;9.362;2023-06-22T05:51:39;21.50;99.90
46590;DHT22;32313;48.722;9.362;2023-06-22T05:54:04;21.60;99.90
46590;DHT22;32313;48.722;9.362;2023-06-22T05:56:30;21.80;99.90
46590;DHT22;32313;48.722;9.362;2023-06-22T05:58:56;22.00;99.90
46590;DHT22;32313;48.722;9.362;2023-06-22T06:01:22;22.20;99.90
46590;DHT22;32313;48.722;9.362;2023-06-22T06:03:48;22.40;99.90
46590;DHT22;32313;48.722;9.362;2023-06-22T06:06:15;22.60;99.90
46590;DHT22;32313;48.722;9.362;2023-06-22T06:08:42;22.80;99.90
46590;DHT22;32313;48.722;9.362;2023-06-22T06:11:07;22.90;99.90
46590;DHT22;32313;48.722;9.362;2023-06-22T06:13:33;23.20;99.90
46590;DHT22;32313;48.722;9.362;2023-06-22T06:15:59;23.30;99.90
46590;DHT22;32313;48.722;9.362;2023-06-22T06:18:25;23.60;99.90
46590;DHT22;32313;48.722;9.362;2023-06-22T06:20:51;23.70;99.90
46590;DHT22;32313;48.722;9.362;2023-06-22T06:23:16;23.90;99.90
46590;DHT22;32313;48.722;9.362;2023-06-22T06:25:42;24.00;99.90
46590;DHT22;32313;48.722;9.362;2023-06-22T06:28:08;24.20;99.90
46590;DHT22;32313;48.722;9.362;2023-06-22T06:30:34;24.30;99.90
46590;DHT22;32313;48.722;9.362;2023-06-22T06:33:02;24.30;99.90
46590;DHT22;32313;48.722;9.362;2023-06-22T06:35:30;24.40;99.90
46590;DHT22;32313;48.722;9.362;2023-06-22T06:37:56;24.60;99.90
46590;DHT22;32313;48.722;9.362;2023-06-22T06:40:22;24.80;99.90
46590;DHT22;32313;48.722;9.362;2023-06-22T06:42:48;25.00;99.90
46590;DHT22;32313;48.722;9.362;2023-06-22T06:45:20;25.50;99.90
46590;DHT22;32313;48.722;9.362;2023-06-22T06:47:49;26.10;99.90
46590;DHT22;32313;48.722;9.362;2023-06-22T06:50:15;26.60;99.90
46590;DHT22;32313;48.722;9.362;2023-06-22T06:52:41;27.00;99.90
46590;DHT22;32313;48.722;9.362;2023-06-22T06:55:08;27.40;99.90
46590;DHT22;32313;48.722;9.362;2023-06-22T06:57:38;27.70;99.90
46590;DHT22;32313;48.722;9.362;2023-06-22T07:00:06;27.90;99.90
46590;DHT22;32313;48.722;9.362;2023-06-22T07:02:35;28.30;99.90
46590;DHT22;32313;48.722;9.362;2023-06-22T07:05:01;28.40;99.90
46590;DHT22;32313;48.722;9.362;2023-06-22T07:07:30;28.60;99.90
46590;DHT22;32313;48.722;9.362;2023-06-22T07:09:55;28.70;99.90
46590;DHT22;32313;48.722;9.362;2023-06-22T07:12:21;28.90;99.90
46590;DHT22;32313;48.722;9.362;2023-06-22T07:14:47;29.10;99.90
46590;DHT22;32313;48.722;9.362;2023-06-22T07:17:13;29.20;99.90
46590;DHT22;32313;48.722;9.362;2023-06-22T07:19:39;29.10;99.90
46590;DHT22;32313;48.722;9.362;2023-06-22T07:22:05;29.40;99.90
46590;DHT22;32313;48.722;9.362;2023-06-22T07:24:31;29.80;99.90
46590;DHT22;32313;48.722;9.362;2023-06-22T07:26:58;30.00;99.90
46590;DHT22;32313;48.722;9.362;2023-06-22T07:29:25;30.10;99.90
46590;DHT22;32313;48.722;9.362;2023-06-22T07:31:52;30.00;99.90
46590;DHT22;32313;48.722;9.362;2023-06-22T07:34:18;29.80;99.90
46590;DHT22;32313;48.722;9.362;2023-06-22T07:36:44;30.00;99.90
46590;DHT22;32313;48.722;9.362;2023-06-22T07:39:11;30.10;99.90
46590;DHT22;32313;48.722;9.362;2023-06-22T07:41:43;30.40;99.90
46590;DHT22;32313;48.722;9.362;2023-06-22T07:44:10;30.50;99.90
46590;DHT22;32313;48.722;9.362;2023-06-22T07:46:36;30.60;99.90
46590;DHT22;32313;48.722;9.362;2023-06-22T07:49:02;30.60;99.90
46590;DHT22;32313;48.722;9.362;2023-06-22T07:51:27;30.80;99.90
46590;DHT22;32313;48.722;9.362;2023-06-22T07:53:53;31.00;99.90
46590;DHT22;32313;48.722;9.362;2023-06-22T07:56:19;31.30;99.90
46590;DHT22;32313;48.722;9.362;2023-06-22T07:58:46;31.40;99.90
46590;DHT22;32313;48.722;9.362;2023-06-22T08:01:16;31.70;99.90
46590;DHT22;32313;48.722;9.362;2023-06-22T08:03:42;31.80;99.10
46590;DHT22;32313;48.722;9.362;2023-06-22T08:06:09;32.20;98.50
46590;DHT22;32313;48.722;9.362;2023-06-22T08:08:36;32.20;97.00
46590;DHT22;32313;48.722;9.362;2023-06-22T08:11:02;32.40;97.20
46590;DHT22;32313;48.722;9.362;2023-06-22T08:13:28;32.40;96.50
46590;DHT22;32313;48.722;9.362;2023-06-22T08:15:54;32.50;96.30
46590;DHT22;32313;48.722;9.362;2023-06-22T08:18:20;32.70;95.70
46590;DHT22;32313;48.722;9.362;2023-06-22T08:20:46;32.90;94.40
46590;DHT22;32313;48.722;9.362;2023-06-22T08:23:12;32.70;93.60
46590;DHT22;32313;48.722;9.362;2023-06-22T08:25:37;32.80;93.50
46590;DHT22;32313;48.722;9.362;2023-06-22T08:28:04;33.40;92.30
46590;DHT22;32313;48.722;9.362;2023-06-22T08:30:30;33.80;91.30
46590;DHT22;32313;48.722;9.362;2023-06-22T08:32:56;34.00;91.30
46590;DHT22;32313;48.722;9.362;2023-06-22T08:35:23;34.20;90.50
46590;DHT22;32313;48.722;9.362;2023-06-22T08:37:49;34.70;88.80
46590;DHT22;32313;48.722;9.362;2023-06-22T08:40:20;34.90;85.20
46590;DHT22;32313;48.722;9.362;2023-06-22T08:42:46;34.60;84.90
46590;DHT22;32313;48.722;9.362;2023-06-22T08:45:12;34.40;84.80
46590;DHT22;32313;48.722;9.362;2023-06-22T08:47:39;34.60;83.80
46590;DHT22;32313;48.722;9.362;2023-06-22T08:50:06;35.00;83.50
46590;DHT22;32313;48.722;9.362;2023-06-22T08:52:33;35.70;81.50
46590;DHT22;32313;48.722;9.362;2023-06-22T08:54:59;35.40;81.90
46590;DHT22;32313;48.722;9.362;2023-06-22T08:57:25;35.30;81.00
46590;DHT22;32313;48.722;9.362;2023-06-22T08:59:50;36.00;79.80
46590;DHT22;32313;48.722;9.362;2023-06-22T09:02:18;36.90;78.00
46590;DHT22;32313;48.722;9.362;2023-06-22T09:04:46;37.30;76.20
46590;DHT22;32313;48.722;9.362;2023-06-22T09:07:12;37.40;75.10
46590;DHT22;32313;48.722;9.362;2023-06-22T09:09:37;37.70;74.70
46590;DHT22;32313;48.722;9.362;2023-06-22T09:12:04;38.00;73.50
46590;DHT22;32313;48.722;9.362;2023-06-22T09:14:30;38.10;71.80
46590;DHT22;32313;48.722;9.362;2023-06-22T09:16:56;37.80;72.50
46590;DHT22;32313;48.722;9.362;2023-06-22T09:19:21;37.70;71.10
46590;DHT22;32313;48.722;9.362;2023-06-22T09:21:47;37.50;70.80
46590;DHT22;32313;48.722;9.362;2023-06-22T09:24:13;36.80;72.50
46590;DHT22;32313;48.722;9.362;2023-06-22T09:26:39;36.50;73.40
46590;DHT22;32313;48.722;9.362;2023-06-22T09:29:05;36.30;73.80
46590;DHT22;32313;48.722;9.362;2023-06-22T09:31:31;36.10;74.60
46590;DHT22;32313;48.722;9.362;2023-06-22T09:33:57;35.90;74.40
46590;DHT22;32313;48.722;9.362;2023-06-22T09:36:23;36.10;75.10
46590;DHT22;32313;48.722;9.362;2023-06-22T09:38:49;36.00;74.40
46590;DHT22;32313;48.722;9.362;2023-06-22T09:41:24;35.60;74.70
46590;DHT22;32313;48.722;9.362;2023-06-22T09:43:50;35.70;74.50
46590;DHT22;32313;48.722;9.362;2023-06-22T09:46:16;35.60;74.40
46590;DHT22;32313;48.722;9.362;2023-06-22T09:48:42;35.40;74.70
46590;DHT22;32313;48.722;9.362;2023-06-22T09:51:08;34.90;75.30
46590;DHT22;32313;48.722;9.362;2023-06-22T09:53:34;34.60;76.30
46590;DHT22;32313;48.722;9.362;2023-06-22T09:56:03;34.60;76.50
46590;DHT22;32313;48.722;9.362;2023-06-22T09:58:29;34.50;76.40
46590;DHT22;32313;48.722;9.362;2023-06-22T10:00:55;34.50;77.20
46590;DHT22;32313;48.722;9.362;2023-06-22T10:03:21;35.00;76.40
46590;DHT22;32313;48.722;9.362;2023-06-22T10:05:47;35.70;75.50
46590;DHT22;32313;48.722;9.362;2023-06-22T10:08:12;36.60;73.80
46590;DHT22;32313;48.722;9.362;2023-06-22T10:10:38;36.50;71.40
46590;DHT22;32313;48.722;9.362;2023-06-22T10:13:09;36.50;71.60
46590;DHT22;32313;48.722;9.362;2023-06-22T10:15:38;36.40;70.90
46590;DHT22;32313;48.722;9.362;2023-06-22T10:18:04;35.80;71.50
46590;DHT22;32313;48.722;9.362;2023-06-22T10:20:30;34.80;73.70
46590;DHT22;32313;48.722;9.362;2023-06-22T10:22:56;33.90;76.40
46590;DHT22;32313;48.722;9.362;2023-06-22T10:25:22;33.30;78.50
46590;DHT22;32313;48.722;9.362;2023-06-22T10:27:47;33.20;79.20
46590;DHT22;32313;48.722;9.362;2023-06-22T10:30:13;33.20;78.80
46590;DHT22;32313;48.722;9.362;2023-06-22T10:32:40;33.20;79.10
46590;DHT22;32313;48.722;9.362;2023-06-22T10:35:06;33.90;78.40
46590;DHT22;32313;48.722;9.362;2023-06-22T10:37:32;34.60;76.60
46590;DHT22;32313;48.722;9.362;2023-06-22T10:39:58;34.70;74.90
46590;DHT22;32313;48.722;9.362;2023-06-22T10:42:23;34.70;75.00
46590;DHT22;32313;48.722;9.362;2023-06-22T10:44:49;34.70;75.00
46590;DHT22;32313;48.722;9.362;2023-06-22T10:47:15;34.70;74.70
46590;DHT22;32313;48.722;9.362;2023-06-22T10:49:41;35.00;74.50
46590;DHT22;32313;48.722;9.362;2023-06-22T10:52:08;35.80;72.40
46590;DHT22;32313;48.722;9.362;2023-06-22T10:54:35;36.30;72.60
46590;DHT22;32313;48.722;9.362;2023-06-22T10:57:02;36.80;70.80
46590;DHT22;32313;48.722;9.362;2023-06-22T10:59:28;37.20;69.90
46590;DHT22;32313;48.722;9.362;2023-06-22T11:01:55;36.80;69.60
46590;DHT22;32313;48.722;9.362;2023-06-22T11:04:21;36.50;69.00
46590;DHT22;32313;48.722;9.362;2023-06-22T11:06:48;36.50;70.60
46590;DHT22;32313;48.722;9.362;2023-06-22T11:09:14;36.50;70.30
46590;DHT22;32313;48.722;9.362;2023-06-22T11:11:45;36.10;70.40
46590;DHT22;32313;48.722;9.362;2023-06-22T11:14:10;35.90;71.40
46590;DHT22;32313;48.722;9.362;2023-06-22T11:16:36;35.90;70.70
46590;DHT22;32313;48.722;9.362;2023-06-22T11:19:04;36.10;70.60
46590;DHT22;32313;48.722;9.362;2023-06-22T11:21:30;36.20;70.00
46590;DHT22;32313;48.722;9.362;2023-06-22T11:23:57;36.20;70.60
46590;DHT22;32313;48.722;9.362;2023-06-22T11:26:22;35.80;71.30
46590;DHT22;32313;48.722;9.362;2023-06-22T11:28:48;35.60;71.60
46590;DHT22;32313;48.722;9.362;2023-06-22T11:31:14;35.50;71.40
46590;DHT22;32313;48.722;9.362;2023-06-22T11:33:40;35.80;72.20
46590;DHT22;32313;48.722;9.362;2023-06-22T11:36:06;35.90;70.90
46590;DHT22;32313;48.722;9.362;2023-06-22T11:38:32;35.60;71.10
46590;DHT22;32313;48.722;9.362;2023-06-22T11:40:59;35.70;71.50
46590;DHT22;32313;48.722;9.362;2023-06-22T11:43:25;35.70;71.10
46590;DHT22;32313;48.722;9.362;2023-06-22T11:45:51;35.40;71.40
46590;DHT22;32313;48.722;9.362;2023-06-22T11:48:17;35.30;71.70
46590;DHT22;32313;48.722;9.362;2023-06-22T11:50:43;35.20;71.60
46590;DHT22;32313;48.722;9.362;2023-06-22T11:53:08;35.00;72.00
46590;DHT22;32313;48.722;9.362;2023-06-22T11:55:34;34.70;72.20
46590;DHT22;32313;48.722;9.362;2023-06-22T11:58:00;34.30;72.70
46590;DHT22;32313;48.722;9.362;2023-06-22T12:00:29;33.90;73.80
46590;DHT22;32313;48.722;9.362;2023-06-22T12:02:55;33.80;74.40
46590;DHT22;32313;48.722;9.362;2023-06-22T12:05:21;33.80;75.10
46590;DHT22;32313;48.722;9.362;2023-06-22T12:07:48;33.70;73.90
46590;DHT22;32313;48.722;9.362;2023-06-22T12:10:14;33.90;74.20
46590;DHT22;32313;48.722;9.362;2023-06-22T12:12:41;34.20;73.50
46590;DHT22;32313;48.722;9.362;2023-06-22T12:15:08;34.50;72.50
46590;DHT22;32313;48.722;9.362;2023-06-22T12:17:34;34.60;72.50
46590;DHT22;32313;48.722;9.362;2023-06-22T12:20:00;34.40;72.20
46590;DHT22;32313;48.722;9.362;2023-06-22T12:22:27;34.30;72.90
46590;DHT22;32313;48.722;9.362;2023-06-22T12:24:52;34.20;72.10
46590;DHT22;32313;48.722;9.362;2023-06-22T12:27:18;34.10;72.50
46590;DHT22;32313;48.722;9.362;2023-06-22T12:29:47;34.20;72.60
46590;DHT22;32313;48.722;9.362;2023-06-22T12:32:13;34.10;72.50
46590;DHT22;32313;48.722;9.362;2023-06-22T12:34:41;33.90;72.90
46590;DHT22;32313;48.722;9.362;2023-06-22T12:37:06;33.60;73.50
46590;DHT22;32313;48.722;9.362;2023-06-22T12:39:32;33.30;74.00
46590;DHT22;32313;48.722;9.362;2023-06-22T12:41:58;32.90;74.80
46590;DHT22;32313;48.722;9.362;2023-06-22T12:44:24;32.70;76.10
46590;DHT22;32313;48.722;9.362;2023-06-22T12:46:50;32.60;76.30
46590;DHT22;32313;48.722;9.362;2023-06-22T12:49:16;32.30;76.30
46590;DHT22;32313;48.722;9.362;2023-06-22T12:51:43;32.10;77.10
46590;DHT22;32313;48.722;9.362;2023-06-22T12:54:10;31.90;77.60
46590;DHT22;32313;48.722;9.362;2023-06-22T12:56:37;31.90;78.30
46590;DHT22;32313;48.722;9.362;2023-06-22T12:59:06;31.80;78.30
46590;DHT22;32313;48.722;9.362;2023-06-22T13:01:32;31.90;78.10
46590;DHT22;32313;48.722;9.362;2023-06-22T13:03:58;32.10;78.80
46590;DHT22;32313;48.722;9.362;2023-06-22T13:06:24;32.20;78.40
46590;DHT22;32313;48.722;9.362;2023-06-22T13:08:59;32.30;78.50
46590;DHT22;32313;48.722;9.362;2023-06-22T13:11:25;32.40;77.90
46590;DHT22;32313;48.722;9.362;2023-06-22T13:13:51;32.50;78.10
46590;DHT22;32313;48.722;9.362;2023-06-22T13:16:17;32.50;78.20
46590;DHT22;32313;48.722;9.362;2023-06-22T13:18:42;32.70;77.40
46590;DHT22;32313;48.722;9.362;2023-06-22T13:21:08;32.80;75.80
46590;DHT22;32313;48.722;9.362;2023-06-22T13:23:34;32.80;75.70
46590;DHT22;32313;48.722;9.362;2023-06-22T13:26:00;32.90;75.20
46590;DHT22;32313;48.722;9.362;2023-06-22T13:28:26;33.20;75.30
46590;DHT22;32313;48.722;9.362;2023-06-22T13:30:51;33.50;74.20
46590;DHT22;32313;48.722;9.362;2023-06-22T13:33:17;34.00;73.60
46590;DHT22;32313;48.722;9.362;2023-06-22T13:35:43;34.30;74.00
46590;DHT22;32313;48.722;9.362;2023-06-22T13:38:09;34.60;72.90
46590;DHT22;32313;48.722;9.362;2023-06-22T13:40:37;34.50;73.20
46590;DHT22;32313;48.722;9.362;2023-06-22T13:43:04;34.40;72.40
46590;DHT22;32313;48.722;9.362;2023-06-22T13:45:30;34.30;72.00
46590;DHT22;32313;48.722;9.362;2023-06-22T13:47:56;34.40;71.60
46590;DHT22;32313;48.722;9.362;2023-06-22T13:50:22;34.80;70.80
46590;DHT22;32313;48.722;9.362;2023-06-22T13:52:47;35.30;69.10
46590;DHT22;32313;48.722;9.362;2023-06-22T13:55:13;35.60;68.10
46590;DHT22;32313;48.722;9.362;2023-06-22T13:57:40;35.60;68.10
46590;DHT22;32313;48.722;9.362;2023-06-22T14:00:07;35.60;67.40
46590;DHT22;32313;48.722;9.362;2023-06-22T14:02:38;35.60;67.30
46590;DHT22;32313;48.722;9.362;2023-06-22T14:05:05;35.60;66.90
46590;DHT22;32313;48.722;9.362;2023-06-22T14:07:31;35.40;66.50
46590;DHT22;32313;48.722;9.362;2023-06-22T14:09:57;35.50;65.50
46590;DHT22;32313;48.722;9.362;2023-06-22T14:12:24;35.40;65.80
46590;DHT22;32313;48.722;9.362;2023-06-22T14:14:49;35.50;65.90
46590;DHT22;32313;48.722;9.362;2023-06-22T14:17:15;35.70;65.60
46590;DHT22;32313;48.722;9.362;2023-06-22T14:19:41;35.90;65.80
46590;DHT22;32313;48.722;9.362;2023-06-22T14:22:10;35.80;65.90
46590;DHT22;32313;48.722;9.362;2023-06-22T14:24:35;35.30;66.80
46590;DHT22;32313;48.722;9.362;2023-06-22T14:27:01;35.10;67.30
46590;DHT22;32313;48.722;9.362;2023-06-22T14:29:28;34.90;67.60
46590;DHT22;32313;48.722;9.362;2023-06-22T14:31:54;34.80;68.80
46590;DHT22;32313;48.722;9.362;2023-06-22T14:34:20;34.80;67.10
46590;DHT22;32313;48.722;9.362;2023-06-22T14:36:46;34.70;66.00
46590;DHT22;32313;48.722;9.362;2023-06-22T14:39:11;34.50;65.80
46590;DHT22;32313;48.722;9.362;2023-06-22T14:41:37;34.70;66.90
46590;DHT22;32313;48.722;9.362;2023-06-22T14:44:03;35.20;65.70
46590;DHT22;32313;48.722;9.362;2023-06-22T14:46:29;35.50;65.10
46590;DHT22;32313;48.722;9.362;2023-06-22T14:48:54;35.90;64.50
46590;DHT22;32313;48.722;9.362;2023-06-22T14:51:20;35.90;64.30
46590;DHT22;32313;48.722;9.362;2023-06-22T14:53:46;35.70;64.50
46590;DHT22;32313;48.722;9.362;2023-06-22T14:56:12;35.40;64.40
46590;DHT22;32313;48.722;9.362;2023-06-22T14:58:43;35.20;64.80
46590;DHT22;32313;48.722;9.362;2023-06-22T15:01:12;35.10;64.60
46590;DHT22;32313;48.722;9.362;2023-06-22T15:03:38;35.20;64.30
46590;DHT22;32313;48.722;9.362;2023-06-22T15:06:04;35.20;64.20
46590;DHT22;32313;48.722;9.362;2023-06-22T15:08:30;35.10;65.00
46590;DHT22;32313;48.722;9.362;2023-06-22T15:10:59;35.00;64.90
46590;DHT22;32313;48.722;9.362;2023-06-22T15:13:25;34.90;65.60
46590;DHT22;32313;48.722;9.362;2023-06-22T15:15:53;34.80;62.50
46590;DHT22;32313;48.722;9.362;2023-06-22T15:18:19;34.70;61.30
46590;DHT22;32313;48.722;9.362;2023-06-22T15:20:44;34.60;59.30
46590;DHT22;32313;48.722;9.362;2023-06-22T15:23:12;34.60;58.50
46590;DHT22;32313;48.722;9.362;2023-06-22T15:25:37;34.90;56.40
46590;DHT22;32313;48.722;9.362;2023-06-22T15:28:03;34.90;56.60
46590;DHT22;32313;48.722;9.362;2023-06-22T15:30:29;35.20;54.60